createdAt,value
2019-04-03T00:01:20.112Z,11.50
2019-04-03T00:03:48.958Z,11.50
2019-04-03T00:06:17.827Z,11.50
2019-04-03T00:08:46.905Z,11.40
2019-04-03T00:11:15.794Z,11.40
2019-04-03T00:13:44.736Z,11.50
2019-04-03T00:16:16.313Z,11.40
2019-04-03T00:18:46.786Z,11.30
2019-04-03T00:21:15.722Z,11.30
2019-04-03T00:23:44.485Z,11.40
2019-04-03T00:26:13.334Z,11.40
2019-04-03T00:28:42.199Z,11.30
2019-04-03T00:31:11.043Z,11.30
2019-04-03T00:33:40.142Z,11.30
2019-04-03T00:36:09.199Z,11.30
2019-04-03T00:38:37.951Z,11.30
2019-04-03T00:41:06.891Z,11.30
2019-04-03T00:43:35.694Z,11.40
2019-04-03T00:46:04.651Z,11.40
2019-04-03T00:48:33.528Z,11.40
2019-04-03T00:51:02.453Z,11.40
2019-04-03T00:53:31.313Z,11.60
2019-04-03T00:56:00.288Z,11.40
2019-04-03T00:58:37.081Z,11.40
2019-04-03T01:01:08.402Z,11.50
2019-04-03T01:03:37.297Z,11.40
2019-04-03T01:06:06.430Z,11.50
2019-04-03T01:08:35.474Z,11.40
2019-04-03T01:11:04.859Z,11.50
2019-04-03T01:13:34.175Z,11.30
2019-04-03T01:16:03.223Z,11.40
2019-04-03T01:18:34.375Z,11.40
2019-04-03T01:21:02.778Z,11.40
2019-04-03T01:23:31.576Z,11.40
2019-04-03T01:26:00.390Z,11.50
2019-04-03T01:28:29.394Z,11.50
2019-04-03T01:30:58.556Z,11.50
2019-04-03T01:33:27.399Z,11.50
2019-04-03T01:35:56.446Z,11.50
2019-04-03T01:38:25.301Z,11.50
2019-04-03T01:40:54.164Z,11.60
2019-04-03T01:43:23.512Z,11.80
2019-04-03T01:45:52.537Z,11.60
2019-04-03T01:48:21.450Z,11.60
2019-04-03T01:50:50.299Z,11.80
2019-04-03T01:53:19.158Z,11.90
2019-04-03T01:55:47.989Z,11.60
2019-04-03T01:58:16.847Z,11.40
2019-04-03T02:00:45.715Z,11.10
2019-04-03T02:03:14.741Z,11.10
2019-04-03T02:05:44.118Z,11.10
2019-04-03T02:08:14.571Z,11.10
2019-04-03T02:10:43.784Z,11.10
2019-04-03T02:13:12.687Z,11.00
2019-04-03T02:15:41.518Z,10.80
2019-04-03T02:18:10.305Z,10.80
2019-04-03T02:20:39.200Z,10.80
2019-04-03T02:23:08.225Z,10.80
2019-04-03T02:25:37.075Z,10.80
2019-04-03T02:28:05.874Z,10.90
2019-04-03T02:30:34.866Z,11.00
2019-04-03T02:33:03.837Z,11.10
2019-04-03T02:35:32.850Z,11.10
2019-04-03T02:38:01.675Z,11.10
2019-04-03T02:40:32.537Z,11.10
2019-04-03T02:43:01.419Z,11.00
2019-04-03T02:45:30.200Z,11.10
2019-04-03T02:47:58.965Z,11.10
2019-04-03T02:50:27.916Z,11.00
2019-04-03T02:52:58.420Z,11.00
2019-04-03T02:55:27.395Z,11.00
2019-04-03T02:57:56.394Z,10.90
2019-04-03T03:00:25.420Z,11.00
2019-04-03T03:02:54.281Z,11.00
2019-04-03T03:05:26.887Z,11.00
2019-04-03T03:07:53.724Z,11.00
2019-04-03T03:10:22.691Z,11.00
2019-04-03T03:12:52.039Z,10.90
2019-04-03T03:15:21.595Z,11.00
2019-04-03T03:17:54.548Z,10.90
2019-04-03T03:20:24.043Z,10.90
2019-04-03T03:22:54.701Z,10.80
2019-04-03T03:25:24.059Z,10.80
2019-04-03T03:27:53.535Z,10.70
2019-04-03T03:30:41.769Z,10.70
2019-04-03T03:33:19.251Z,10.60
2019-04-03T03:35:31.170Z,10.50
2019-04-03T03:37:55.407Z,10.50
2019-04-03T03:40:25.370Z,10.50
2019-04-03T03:42:54.657Z,10.40
2019-04-03T03:45:23.836Z,10.50
2019-04-03T03:47:53.732Z,10.50
2019-04-03T03:50:25.794Z,10.40
2019-04-03T03:52:57.468Z,10.50
2019-04-03T03:55:26.565Z,10.50
2019-04-03T03:57:57.391Z,10.40
2019-04-03T04:00:26.549Z,10.40
2019-04-03T04:02:55.519Z,10.40
2019-04-03T04:05:24.498Z,10.50
2019-04-03T04:07:53.656Z,10.60
2019-04-03T04:10:25.213Z,10.70
2019-04-03T04:12:54.638Z,10.60
2019-04-03T04:15:26.238Z,10.40
2019-04-03T04:17:54.579Z,10.30
2019-04-03T04:20:23.589Z,10.20
2019-04-03T04:22:52.970Z,10.10
2019-04-03T04:25:22.398Z,10.00
2019-04-03T04:27:51.661Z,10.10
2019-04-03T04:30:21.958Z,10.20
2019-04-03T04:32:50.808Z,10.30
2019-04-03T04:35:21.531Z,10.50
2019-04-03T04:37:50.197Z,10.50
2019-04-03T04:40:19.075Z,10.40
2019-04-03T04:42:47.992Z,10.50
2019-04-03T04:45:17.052Z,10.50
2019-04-03T04:47:46.488Z,10.60
2019-04-03T04:50:24.248Z,10.50
2019-04-03T04:52:52.492Z,10.30
2019-04-03T04:55:21.591Z,10.30
2019-04-03T04:57:54.506Z,10.30
2019-04-03T05:00:23.768Z,10.20
2019-04-03T05:02:52.788Z,10.20
2019-04-03T05:05:27.183Z,10.20
2019-04-03T05:07:55.809Z,10.10
2019-04-03T05:10:25.336Z,10.10
2019-04-03T05:12:54.360Z,10.10
2019-04-03T05:15:23.749Z,10.10
2019-04-03T05:17:53.847Z,10.10
2019-04-03T05:20:22.972Z,10.20
2019-04-03T05:22:53.091Z,10.20
2019-04-03T05:25:23.683Z,10.20
2019-04-03T05:27:52.785Z,10.20
2019-04-03T05:30:32.674Z,10.20
2019-04-03T05:33:02.101Z,10.10
2019-04-03T05:35:31.161Z,10.10
2019-04-03T05:38:00.102Z,10.10
2019-04-03T05:40:28.994Z,10.20
2019-04-03T05:42:59.818Z,10.30
2019-04-03T05:45:28.588Z,10.20
2019-04-03T05:47:57.707Z,10.30
2019-04-03T05:50:27.184Z,10.40
2019-04-03T05:52:56.273Z,10.40
2019-04-03T05:55:25.398Z,10.40
2019-04-03T05:57:54.404Z,10.40
2019-04-03T06:00:23.319Z,10.30
2019-04-03T06:02:53.155Z,10.50
2019-04-03T06:05:22.569Z,10.50
2019-04-03T06:07:51.796Z,10.50
2019-04-03T06:10:21.003Z,10.50
2019-04-03T06:12:50.007Z,10.50
2019-04-03T06:15:21.699Z,10.50
2019-04-03T06:17:50.911Z,10.50
2019-04-03T06:20:20.641Z,10.60
2019-04-03T06:22:49.955Z,10.60
2019-04-03T06:25:19.663Z,10.50
2019-04-03T06:27:48.505Z,10.60
2019-04-03T06:30:17.538Z,10.60
2019-04-03T06:32:46.557Z,10.80
2019-04-03T06:35:15.575Z,11.00
2019-04-03T06:37:44.431Z,11.10
2019-04-03T06:40:14.168Z,11.10
2019-04-03T06:42:44.911Z,10.90
2019-04-03T06:45:16.002Z,10.90
2019-04-03T06:47:44.584Z,10.90
2019-04-03T06:50:16.725Z,10.90
2019-04-03T06:52:44.194Z,11.00
2019-04-03T06:55:13.212Z,10.90
2019-04-03T06:57:42.334Z,10.90
2019-04-03T07:00:11.749Z,11.00
2019-04-03T07:02:40.916Z,11.30
2019-04-03T07:05:10.976Z,11.30
2019-04-03T07:07:40.046Z,11.50
2019-04-03T07:10:09.726Z,11.40
2019-04-03T07:12:38.883Z,11.40
2019-04-03T07:15:08.398Z,11.50
2019-04-03T07:17:37.303Z,11.50
2019-04-03T07:20:13.689Z,11.40
2019-04-03T07:22:37.309Z,11.50
2019-04-03T07:25:06.936Z,11.60
2019-04-03T07:27:37.135Z,11.60
2019-04-03T07:30:07.444Z,11.80
2019-04-03T07:32:36.305Z,11.90
2019-04-03T07:35:09.355Z,12.00
2019-04-03T07:37:36.653Z,12.30
2019-04-03T07:40:06.869Z,12.40
2019-04-03T07:42:35.822Z,12.60
2019-04-03T07:45:06.026Z,12.80
2019-04-03T07:47:35.766Z,12.80
2019-04-03T07:50:06.869Z,12.80
2019-04-03T07:52:35.952Z,12.90
2019-04-03T07:55:06.055Z,13.30
2019-04-03T07:57:34.858Z,13.60
2019-04-03T08:00:07.121Z,13.80
2019-04-03T08:02:34.824Z,13.90
2019-04-03T08:05:04.743Z,13.80
2019-04-03T08:07:33.874Z,13.80
2019-04-03T08:10:02.903Z,14.10
2019-04-03T08:12:34.559Z,14.10
2019-04-03T08:15:02.434Z,14.10
2019-04-03T08:17:31.412Z,14.10
2019-04-03T08:20:00.391Z,14.10
2019-04-03T08:22:29.311Z,13.90
2019-04-03T08:24:58.259Z,14.10
2019-04-03T08:27:27.066Z,14.10
2019-04-03T08:29:55.899Z,14.30
2019-04-03T08:32:24.773Z,14.60
2019-04-03T08:34:53.646Z,14.70
2019-04-03T08:37:29.852Z,14.60
2019-04-03T08:39:53.288Z,14.70
2019-04-03T08:42:22.141Z,14.80
2019-04-03T08:44:51.180Z,14.70
2019-04-03T08:47:20.669Z,14.90
2019-04-03T08:49:49.527Z,14.90
2019-04-03T08:52:18.795Z,15.00
2019-04-03T08:54:47.585Z,14.90
2019-04-03T08:57:16.377Z,15.00
2019-04-03T08:59:46.832Z,15.20
2019-04-03T09:02:15.689Z,15.30
2019-04-03T09:04:45.964Z,15.10
2019-04-03T09:07:15.199Z,14.90
2019-04-03T09:09:44.248Z,15.00
2019-04-03T09:12:13.219Z,14.90
2019-04-03T09:14:42.121Z,15.10
2019-04-03T09:17:11.063Z,15.30
2019-04-03T09:19:42.007Z,15.50
2019-04-03T09:22:10.764Z,15.80
2019-04-03T09:24:39.892Z,15.80
2019-04-03T09:27:09.868Z,15.70
2019-04-03T09:29:39.617Z,15.90
2019-04-03T09:32:08.620Z,16.00
2019-04-03T09:34:37.518Z,16.00
2019-04-03T09:37:07.211Z,16.10
2019-04-03T09:39:36.305Z,16.20
2019-04-03T09:42:05.311Z,16.30
2019-04-03T09:44:34.291Z,16.40
2019-04-03T09:47:03.817Z,16.50
2019-04-03T09:49:32.788Z,16.70
2019-04-03T09:52:01.566Z,16.80
2019-04-03T09:54:30.437Z,17.00
2019-04-03T09:57:04.439Z,17.00
2019-04-03T09:59:29.726Z,17.10
2019-04-03T10:01:58.561Z,17.10
2019-04-03T10:04:27.566Z,17.10
2019-04-03T10:06:56.605Z,17.20
2019-04-03T10:09:25.542Z,17.50
2019-04-03T10:11:54.435Z,17.40
2019-04-03T10:14:23.296Z,17.50
2019-04-03T10:16:52.116Z,17.70
2019-04-03T10:19:21.250Z,17.70
2019-04-03T10:21:52.362Z,17.80
2019-04-03T10:24:20.675Z,18.10
2019-04-03T10:26:49.571Z,18.40
2019-04-03T10:29:19.078Z,19.00
2019-04-03T10:31:48.534Z,19.30
2019-04-03T10:34:17.385Z,19.40
2019-04-03T10:36:46.319Z,20.40
2019-04-03T10:39:15.141Z,21.10
2019-04-03T10:41:44.066Z,22.00
2019-04-03T10:44:13.022Z,22.10
2019-04-03T10:46:42.222Z,22.70
2019-04-03T10:49:11.198Z,22.70
2019-04-03T10:51:41.614Z,23.00
2019-04-03T10:54:10.966Z,22.80
2019-04-03T10:56:39.919Z,23.00
2019-04-03T10:59:11.557Z,23.20
2019-04-03T11:01:39.350Z,23.60
2019-04-03T11:04:08.305Z,22.40
2019-04-03T11:06:37.857Z,21.60
2019-04-03T11:09:10.234Z,22.00
2019-04-03T11:11:39.415Z,21.30
2019-04-03T11:14:08.622Z,22.50
2019-04-03T11:16:39.127Z,22.90
2019-04-03T11:19:08.119Z,23.40
2019-04-03T11:21:36.999Z,24.20
2019-04-03T11:24:06.662Z,25.50
2019-04-03T11:26:36.209Z,25.60
2019-04-03T11:29:08.817Z,24.60
2019-04-03T11:31:41.213Z,24.20
2019-04-03T11:34:07.152Z,25.40
2019-04-03T11:36:36.289Z,26.20
2019-04-03T11:39:14.966Z,26.20
2019-04-03T11:41:39.731Z,26.50
2019-04-03T11:44:08.527Z,27.50
2019-04-03T11:46:37.645Z,27.50
2019-04-03T11:49:06.697Z,27.30
2019-04-03T11:51:35.569Z,26.30
2019-04-03T11:54:06.791Z,26.70
2019-04-03T11:56:35.095Z,27.00
2019-04-03T11:59:04.083Z,25.30
2019-04-03T12:01:33.173Z,25.80
2019-04-03T12:04:02.055Z,25.70
2019-04-03T12:06:31.087Z,24.30
2019-04-03T12:09:01.133Z,24.60
2019-04-03T12:11:30.111Z,26.20
2019-04-03T12:13:58.937Z,26.60
2019-04-03T12:16:28.007Z,27.00
2019-04-03T12:18:57.124Z,27.90
2019-04-03T12:21:26.332Z,26.70
2019-04-03T12:23:57.867Z,24.90
2019-04-03T12:26:25.763Z,25.30
2019-04-03T12:28:54.850Z,25.50
2019-04-03T12:31:23.841Z,26.30
2019-04-03T12:33:58.492Z,25.20
2019-04-03T12:36:23.167Z,24.30
2019-04-03T12:38:54.591Z,24.80
2019-04-03T12:41:22.580Z,24.00
2019-04-03T12:43:51.482Z,24.00
2019-04-03T12:46:36.918Z,23.60
2019-04-03T12:49:08.016Z,23.70
2019-04-03T12:51:37.085Z,22.50
2019-04-03T12:54:06.186Z,22.30
2019-04-03T12:56:36.059Z,22.00
2019-04-03T12:59:07.465Z,22.20
2019-04-03T13:01:35.964Z,21.90
2019-04-03T13:04:05.098Z,22.10
2019-04-03T13:06:33.983Z,22.10
2019-04-03T13:09:03.390Z,22.50
2019-04-03T13:11:33.438Z,22.30
2019-04-03T13:14:02.949Z,22.40
2019-04-03T13:16:32.161Z,22.80
2019-04-03T13:19:01.635Z,22.70
2019-04-03T13:21:30.620Z,23.40
2019-04-03T13:23:59.865Z,23.30
2019-04-03T13:26:28.842Z,22.90
2019-04-03T13:28:57.704Z,22.40
2019-04-03T13:31:26.490Z,22.30
2019-04-03T13:33:55.627Z,22.00
2019-04-03T13:36:25.117Z,21.40
2019-04-03T13:38:54.418Z,21.40
2019-04-03T13:41:23.642Z,22.20
2019-04-03T13:43:54.402Z,22.20
2019-04-03T13:46:23.466Z,22.30
2019-04-03T13:48:52.889Z,22.30
2019-04-03T13:51:22.225Z,22.10
2019-04-03T13:53:53.064Z,21.30
2019-04-03T13:56:23.724Z,21.50
2019-04-03T13:58:54.145Z,21.80
2019-04-03T14:01:23.730Z,22.20
2019-04-03T14:03:52.777Z,22.20
2019-04-03T14:06:21.872Z,22.10
2019-04-03T14:08:50.965Z,22.40
2019-04-03T14:11:19.852Z,22.30
2019-04-03T14:13:48.865Z,22.10
2019-04-03T14:16:21.517Z,22.60
2019-04-03T14:18:50.398Z,22.70
2019-04-03T14:21:19.577Z,23.30
2019-04-03T14:23:52.062Z,23.20
2019-04-03T14:26:21.549Z,23.40
2019-04-03T14:28:52.253Z,23.00
2019-04-03T14:31:32.721Z,23.00
2019-04-03T14:33:54.988Z,22.90
2019-04-03T14:36:28.946Z,23.10
2019-04-03T14:38:58.496Z,23.60
2019-04-03T14:41:28.019Z,24.00
2019-04-03T14:43:57.460Z,22.70
2019-04-03T14:46:26.464Z,23.00
2019-04-03T14:49:02.990Z,23.20
2019-04-03T14:51:31.051Z,21.90
2019-04-03T14:54:00.488Z,22.30
2019-04-03T14:56:30.438Z,23.40
2019-04-03T14:59:00.737Z,24.70
2019-04-03T15:01:29.968Z,25.50
2019-04-03T15:04:00.756Z,26.00
2019-04-03T15:06:29.483Z,26.40
2019-04-03T15:08:58.608Z,25.10
2019-04-03T15:11:27.605Z,25.20
2019-04-03T15:13:56.653Z,24.50
2019-04-03T15:16:26.815Z,24.30
2019-04-03T15:18:55.772Z,23.90
2019-04-03T15:21:25.309Z,24.10
2019-04-03T15:23:54.261Z,24.30
2019-04-03T15:26:23.173Z,23.40
2019-04-03T15:28:52.576Z,23.80
2019-04-03T15:31:23.888Z,23.40
2019-04-03T15:33:54.264Z,23.20
2019-04-03T15:36:23.194Z,23.70
2019-04-03T15:38:52.169Z,24.00
2019-04-03T15:41:21.669Z,24.30
2019-04-03T15:43:51.954Z,23.90
2019-04-03T15:46:21.059Z,24.10
2019-04-03T15:48:52.530Z,23.60
2019-04-03T15:51:20.956Z,23.50
2019-04-03T15:53:50.045Z,23.60
2019-04-03T15:56:24.220Z,23.40
2019-04-03T15:58:53.243Z,23.40
2019-04-03T16:01:22.094Z,23.30
2019-04-03T16:03:51.232Z,23.40
2019-04-03T16:06:20.202Z,23.90
2019-04-03T16:08:49.110Z,23.70
2019-04-03T16:11:18.463Z,23.20
2019-04-03T16:13:48.163Z,23.00
2019-04-03T16:16:17.783Z,23.00
2019-04-03T16:18:46.851Z,23.20
2019-04-03T16:21:16.162Z,22.60
2019-04-03T16:23:45.287Z,22.20
2019-04-03T16:26:14.637Z,22.50
2019-04-03T16:28:44.180Z,22.20
2019-04-03T16:31:13.733Z,22.00
2019-04-03T16:33:42.777Z,21.70
2019-04-03T16:36:12.163Z,21.90
2019-04-03T16:38:41.446Z,21.70
2019-04-03T16:41:11.601Z,21.40
2019-04-03T16:43:40.814Z,21.20
2019-04-03T16:46:10.958Z,21.40
2019-04-03T16:48:41.120Z,21.60
2019-04-03T16:51:10.240Z,21.40
2019-04-03T16:53:39.472Z,21.10
2019-04-03T16:56:09.465Z,21.00
2019-04-03T16:58:40.426Z,20.80
2019-04-03T17:01:12.864Z,20.70
2019-04-03T17:03:40.358Z,20.60
2019-04-03T17:06:09.309Z,20.60
2019-04-03T17:08:38.455Z,20.70
2019-04-03T17:11:07.490Z,20.50
2019-04-03T17:13:36.794Z,20.20
2019-04-03T17:16:06.933Z,20.00
2019-04-03T17:18:47.478Z,20.10
2019-04-03T17:21:16.775Z,20.10
2019-04-03T17:23:46.298Z,20.00
2019-04-03T17:26:15.600Z,19.90
2019-04-03T17:28:44.478Z,19.80
2019-04-03T17:31:13.355Z,19.70
2019-04-03T17:33:42.537Z,19.60
2019-04-03T17:36:11.792Z,19.60
2019-04-03T17:38:40.802Z,19.50
2019-04-03T17:41:09.974Z,19.40
2019-04-03T17:43:38.777Z,19.40
2019-04-03T17:46:07.729Z,19.40
2019-04-03T17:48:36.638Z,19.30
2019-04-03T17:51:05.619Z,19.20
2019-04-03T17:53:36.423Z,19.10
2019-04-03T17:56:05.285Z,19.00
2019-04-03T17:58:34.236Z,19.00
2019-04-03T18:01:03.404Z,18.90
2019-04-03T18:03:32.304Z,18.70
2019-04-03T18:06:02.186Z,18.60
2019-04-03T18:08:32.588Z,18.40
2019-04-03T18:11:01.875Z,18.30
2019-04-03T18:13:31.018Z,18.30
2019-04-03T18:16:00.128Z,18.40
2019-04-03T18:18:29.072Z,18.40
2019-04-03T18:20:57.951Z,18.30
2019-04-03T18:23:26.923Z,18.30
2019-04-03T18:25:57.786Z,18.20
2019-04-03T18:28:26.757Z,18.10
2019-04-03T18:30:55.907Z,18.10
2019-04-03T18:33:24.918Z,18.00
2019-04-03T18:35:56.425Z,18.00
2019-04-03T18:38:24.663Z,18.00
2019-04-03T18:40:53.568Z,17.90
2019-04-03T18:43:22.588Z,17.80
2019-04-03T18:45:51.469Z,17.70
2019-04-03T18:48:20.408Z,17.70
2019-04-03T18:50:49.496Z,17.70
2019-04-03T18:53:18.395Z,17.70
2019-04-03T18:55:47.420Z,17.60
2019-04-03T18:58:16.270Z,17.60
2019-04-03T19:00:45.221Z,17.40
2019-04-03T19:03:14.251Z,17.30
2019-04-03T19:05:43.367Z,17.30
2019-04-03T19:08:13.728Z,17.30
2019-04-03T19:10:42.850Z,17.30
2019-04-03T19:13:13.738Z,17.20
2019-04-03T19:15:42.402Z,17.10
2019-04-03T19:18:19.357Z,17.00
2019-04-03T19:20:41.972Z,17.10
2019-04-03T19:23:11.167Z,17.10
2019-04-03T19:25:40.362Z,17.20
2019-04-03T19:28:09.226Z,17.10
2019-04-03T19:30:38.585Z,17.10
2019-04-03T19:33:07.741Z,17.10
2019-04-03T19:35:36.818Z,17.10
2019-04-03T19:38:05.789Z,17.10
2019-04-03T19:40:34.687Z,16.90
2019-04-03T19:43:03.767Z,17.00
2019-04-03T19:45:32.870Z,17.10
2019-04-03T19:48:01.779Z,16.90
2019-04-03T19:50:31.843Z,16.80
2019-04-03T19:53:01.428Z,16.80
2019-04-03T19:55:30.347Z,16.70
2019-04-03T19:57:59.308Z,16.70
2019-04-03T20:00:28.271Z,16.80
2019-04-03T20:02:57.163Z,16.90
2019-04-03T20:05:26.509Z,16.80
2019-04-03T20:07:58.933Z,16.70
2019-04-03T20:10:27.735Z,16.60
2019-04-03T20:12:56.967Z,16.60
2019-04-03T20:15:26.019Z,16.50
2019-04-03T20:17:55.486Z,16.50
2019-04-03T20:20:24.510Z,16.50
2019-04-03T20:22:53.638Z,16.50
2019-04-03T20:25:22.533Z,16.50
2019-04-03T20:27:52.321Z,16.50
2019-04-03T20:30:21.495Z,16.50
2019-04-03T20:32:50.506Z,16.50
2019-04-03T20:35:19.353Z,16.50
2019-04-03T20:37:48.166Z,16.50
2019-04-03T20:40:17.572Z,16.50
2019-04-03T20:42:46.502Z,16.60
2019-04-03T20:45:18.788Z,16.70
2019-04-03T20:47:46.066Z,16.60
2019-04-03T20:50:16.297Z,16.60
2019-04-03T20:52:46.175Z,16.50
2019-04-03T20:55:16.772Z,16.50
2019-04-03T20:57:55.504Z,16.50
2019-04-03T21:00:19.062Z,16.50
2019-04-03T21:02:48.148Z,16.50
2019-04-03T21:05:18.649Z,16.40
2019-04-03T21:07:47.646Z,16.30
2019-04-03T21:10:16.584Z,16.30
2019-04-03T21:12:45.619Z,16.40
2019-04-03T21:15:14.564Z,16.30
2019-04-03T21:17:43.449Z,16.30
2019-04-03T21:20:12.427Z,16.30
2019-04-03T21:22:41.322Z,16.40
2019-04-03T21:25:10.255Z,16.30
2019-04-03T21:27:40.069Z,16.30
2019-04-03T21:30:10.483Z,16.10
2019-04-03T21:32:39.592Z,15.80
2019-04-03T21:35:08.916Z,15.90
2019-04-03T21:37:39.600Z,15.90
2019-04-03T21:40:08.617Z,15.90
2019-04-03T21:42:37.511Z,15.90
2019-04-03T21:45:08.077Z,15.90
2019-04-03T21:47:37.173Z,15.80
2019-04-03T21:50:06.977Z,15.60
2019-04-03T21:52:36.094Z,15.70
2019-04-03T21:55:06.635Z,15.70
2019-04-03T21:57:38.307Z,15.80
2019-04-03T22:00:08.191Z,15.70
2019-04-03T22:02:37.125Z,15.50
2019-04-03T22:05:07.358Z,15.60
2019-04-03T22:07:36.372Z,15.60
2019-04-03T22:10:08.631Z,15.60
2019-04-03T22:12:36.694Z,15.60
2019-04-03T22:15:07.509Z,15.50
2019-04-03T22:17:36.343Z,15.50
2019-04-03T22:20:05.698Z,15.50
2019-04-03T22:22:35.178Z,15.50
2019-04-03T22:25:04.238Z,15.40
2019-04-03T22:27:33.140Z,15.40
2019-04-03T22:30:01.935Z,15.40
2019-04-03T22:32:33.221Z,15.40
2019-04-03T22:35:02.021Z,15.40
2019-04-03T22:37:30.930Z,15.30
2019-04-03T22:39:59.803Z,15.20
2019-04-03T22:42:28.631Z,15.00
2019-04-03T22:44:57.536Z,15.00
2019-04-03T22:47:26.364Z,15.00
2019-04-03T22:49:55.158Z,15.10
2019-04-03T22:52:23.928Z,15.10
2019-04-03T22:54:52.895Z,15.10
2019-04-03T22:57:21.740Z,15.00
2019-04-03T22:59:50.656Z,15.00
2019-04-03T23:02:19.442Z,15.00
2019-04-03T23:04:48.268Z,15.10
2019-04-03T23:07:18.895Z,15.00
2019-04-03T23:09:47.820Z,15.00
2019-04-03T23:12:16.713Z,14.90
2019-04-03T23:14:45.504Z,14.90
2019-04-03T23:17:14.568Z,14.80
2019-04-03T23:19:43.557Z,14.80
2019-04-03T23:22:12.553Z,14.90
2019-04-03T23:24:41.482Z,14.90
2019-04-03T23:27:10.386Z,14.80
2019-04-03T23:29:39.157Z,14.80
2019-04-03T23:32:08.056Z,14.80
2019-04-03T23:34:37.096Z,14.80
2019-04-03T23:37:05.995Z,14.90
2019-04-03T23:39:34.934Z,15.00
2019-04-03T23:42:06.588Z,14.90
2019-04-03T23:44:34.319Z,14.80
2019-04-03T23:47:03.243Z,14.80
2019-04-03T23:49:32.110Z,14.70
2019-04-03T23:52:00.904Z,14.70
2019-04-03T23:54:29.708Z,14.60
2019-04-03T23:56:58.567Z,14.60
2019-04-03T23:59:27.460Z,14.50
